aviador You're here:

KRVS Decoded Metar

TULSA in OK, USA
Report Time2017-08-22 21:53:00
UTC Time2017-08-22 22:17:19
Flight Rules vfr VFR
WindVRB at 03 kt
Visibility9999 m
Phenomena:N/A
Clouds:N/A
Expected CloudBase > 4,400 ft AGL from Temp-Dew spread
CeilingNone
Temp33°C (ISA +19)
Dew Point22°C (52% RH)
Heat Index36.9°C
QNH1016 hPa
Density Alt3,104 ft
Elevation656 ft
Report Wrong Elevation
Raw Report
KRVS 222153Z VRB03KT 10SM CLR 33/22 A2999 RMK AO2 LTG DSNT N
SLP156 T03280217=

Extra information for KRVS:More info

Metar Taf Metar & Taf Last 4 Metars F.Rules Stats Wind Profile Meteogram Temp Stats Airport Information Weather charts Add Link Nearby VenuesMetar ALERT Operation Metar Decoded Social comments

AIRNAV info for KRVS